Time;durP1;ratioP1;P1;durP2;ratioP2;P2;SDS_P1;SDS_P2;PMS_P1;PMS_P2;Temp;Humidity;BMP_temperature;BMP_pressure;BME280_temperature;BME280_humidity;BME280_pressure;Samples;Min_cycle;Max_cycle;Signal;HPM_P1;HPM_P2
2021/05/24 00:02:16;;;;;;;2.72;0.90;;;19.10;47.50;;;;;;5093297;28;20104;-73
2021/05/24 00:04:42;;;;;;;2.67;1.20;;;19.10;47.50;;;;;;5093879;28;20032;-73
2021/05/24 00:07:08;;;;;;;2.92;1.00;;;19.10;47.50;;;;;;5094358;28;20074;-72
2021/05/24 00:09:34;;;;;;;2.17;1.00;;;19.10;47.50;;;;;;5094108;28;20032;-73
2021/05/24 00:12:02;;;;;;;1.92;0.98;;;19.10;47.50;;;;;;5093753;28;20051;-73
2021/05/24 00:14:29;;;;;;;2.88;1.23;;;19.10;47.50;;;;;;5093949;28;20455;-73
2021/05/24 00:16:54;;;;;;;1.85;1.08;;;19.10;47.50;;;;;;5093843;28;20028;-73
2021/05/24 00:19:20;;;;;;;3.63;1.20;;;19.00;47.50;;;;;;5093724;28;20074;-73
2021/05/24 00:21:46;;;;;;;5.28;1.65;;;19.10;47.50;;;;;;5093674;28;20032;-73
2021/05/24 00:24:11;;;;;;;4.57;1.35;;;19.00;47.50;;;;;;5093917;28;20115;-72
2021/05/24 00:26:37;;;;;;;2.38;1.23;;;19.10;47.50;;;;;;5093898;28;20097;-72
2021/05/24 00:29:03;;;;;;;4.15;1.58;;;19.10;47.50;;;;;;5093702;28;20031;-72
2021/05/24 00:31:29;;;;;;;4.13;1.40;;;19.10;47.50;;;;;;5094394;28;20168;-73
2021/05/24 00:33:54;;;;;;;2.60;0.93;;;19.00;47.50;;;;;;5106033;28;20032;-72
2021/05/24 00:36:20;;;;;;;3.10;1.23;;;19.00;47.40;;;;;;5097437;28;20038;-73
2021/05/24 00:38:46;;;;;;;3.58;1.65;;;19.10;47.50;;;;;;5094300;28;20024;-73
2021/05/24 00:41:11;;;;;;;4.13;1.10;;;19.00;47.40;;;;;;5093682;28;20547;-74
2021/05/24 00:43:37;;;;;;;2.90;1.20;;;19.10;47.40;;;;;;5093753;28;20027;-73
2021/05/24 00:46:03;;;;;;;4.03;1.48;;;19.00;47.40;;;;;;5093647;28;20032;-73
2021/05/24 00:48:28;;;;;;;3.60;1.25;;;19.00;47.40;;;;;;5093273;28;20032;-74
2021/05/24 00:50:54;;;;;;;3.70;1.33;;;19.00;47.40;;;;;;5093289;28;20028;-73
2021/05/24 00:53:19;;;;;;;3.63;1.33;;;19.00;47.40;;;;;;5093393;28;20023;-73
2021/05/24 00:55:45;;;;;;;3.25;1.30;;;19.00;47.40;;;;;;5092063;28;20499;-73
2021/05/24 00:58:11;;;;;;;4.10;1.60;;;19.00;47.40;;;;;;5092013;28;20031;-73
2021/05/24 01:00:42;;;;;;;3.65;1.40;;;19.00;47.40;;;;;;5093335;28;20032;-73
2021/05/24 01:03:09;;;;;;;3.42;1.65;;;19.00;47.40;;;;;;5092018;28;20524;-73
2021/05/24 01:05:35;;;;;;;2.20;1.30;;;19.00;47.40;;;;;;5093029;28;20384;-73
2021/05/24 01:08:02;;;;;;;2.92;1.20;;;19.00;47.40;;;;;;5093199;28;20024;-73
2021/05/24 01:10:28;;;;;;;4.47;1.83;;;19.00;47.40;;;;;;5093151;28;20099;-74
2021/05/24 01:12:54;;;;;;;3.20;1.40;;;19.00;47.40;;;;;;5092740;28;20119;-72
2021/05/24 01:15:21;;;;;;;3.20;1.30;;;19.00;47.40;;;;;;5097406;28;20105;-72
2021/05/24 01:17:46;;;;;;;4.45;1.75;;;19.00;47.40;;;;;;5097016;28;20181;-72
2021/05/24 01:20:12;;;;;;;3.47;1.35;;;19.00;47.40;;;;;;5097184;28;20051;-72
2021/05/24 01:22:41;;;;;;;3.72;1.77;;;19.00;47.40;;;;;;5097184;28;20056;-72
2021/05/24 01:25:07;;;;;;;4.88;1.80;;;19.00;47.40;;;;;;5097258;28;20110;-72
2021/05/24 01:27:33;;;;;;;3.35;1.45;;;19.00;47.40;;;;;;5097401;28;20475;-72
2021/05/24 01:30:00;;;;;;;3.22;1.40;;;19.00;47.30;;;;;;5097075;28;20032;-72
2021/05/24 01:32:26;;;;;;;3.20;1.45;;;19.00;47.30;;;;;;5097112;28;20020;-72
2021/05/24 01:34:53;;;;;;;3.45;1.55;;;19.00;47.30;;;;;;5096947;28;20035;-73
2021/05/24 01:37:19;;;;;;;4.32;1.90;;;19.00;47.30;;;;;;5096572;28;20077;-72
2021/05/24 01:39:44;;;;;;;3.55;1.75;;;19.00;47.30;;;;;;5096765;28;20476;-72
2021/05/24 01:42:10;;;;;;;2.40;1.27;;;19.00;47.30;;;;;;5096827;28;20021;-72
2021/05/24 01:44:40;;;;;;;4.55;1.73;;;19.00;47.30;;;;;;5097026;28;20081;-72
2021/05/24 01:47:07;;;;;;;3.17;1.63;;;19.00;47.30;;;;;;5097141;28;20024;-72
2021/05/24 01:49:34;;;;;;;4.15;1.52;;;19.00;47.30;;;;;;5098851;28;20032;-74
2021/05/24 01:52:00;;;;;;;3.45;1.52;;;19.00;47.30;;;;;;5107011;28;20085;-74
2021/05/24 01:54:25;;;;;;;3.53;1.73;;;19.00;47.30;;;;;;5107519;28;20032;-73
2021/05/24 01:56:51;;;;;;;2.70;1.23;;;19.00;47.30;;;;;;5107362;28;20028;-73
2021/05/24 01:59:17;;;;;;;5.90;1.73;;;19.00;47.30;;;;;;5107652;28;20181;-73
2021/05/24 02:01:42;;;;;;;2.90;1.35;;;19.00;47.30;;;;;;5109239;28;20375;-71
2021/05/24 02:04:08;;;;;;;4.40;1.70;;;19.00;47.30;;;;;;5106298;28;20040;-72
2021/05/24 02:06:34;;;;;;;3.40;1.70;;;19.00;47.30;;;;;;5106905;28;20024;-72
2021/05/24 02:08:59;;;;;;;4.80;1.98;;;19.00;47.30;;;;;;5106011;28;20422;-72
2021/05/24 02:11:25;;;;;;;5.00;2.08;;;19.00;47.30;;;;;;5097919;28;20028;-72
2021/05/24 02:13:51;;;;;;;3.70;1.70;;;19.00;47.20;;;;;;5095997;28;20020;-72
2021/05/24 02:16:25;;;;;;;3.40;1.70;;;19.00;47.30;;;;;;5096496;28;20453;-71
2021/05/24 02:18:50;;;;;;;4.00;1.80;;;19.00;47.30;;;;;;5096646;28;20153;-73
2021/05/24 02:21:16;;;;;;;4.43;2.03;;;19.00;47.30;;;;;;5096174;28;20103;-72
2021/05/24 02:23:41;;;;;;;4.28;1.90;;;19.00;47.30;;;;;;5095657;28;20040;-72
2021/05/24 02:26:07;;;;;;;3.72;1.80;;;19.00;47.30;;;;;;5094869;28;20039;-72
2021/05/24 02:28:32;;;;;;;3.88;1.80;;;19.00;47.30;;;;;;5095916;28;20028;-72
2021/05/24 02:30:58;;;;;;;5.43;1.80;;;19.00;47.30;;;;;;5095560;28;20390;-72
2021/05/24 02:33:23;;;;;;;3.58;1.60;;;19.00;47.30;;;;;;5095860;28;20032;-72
2021/05/24 02:35:49;;;;;;;4.57;2.15;;;19.00;47.30;;;;;;5095795;28;20073;-73
2021/05/24 02:38:14;;;;;;;3.92;1.80;;;18.90;47.30;;;;;;5095896;28;20059;-73
2021/05/24 02:40:40;;;;;;;4.53;1.70;;;19.00;47.30;;;;;;5095853;28;20027;-73
2021/05/24 02:43:05;;;;;;;4.88;1.83;;;19.00;47.30;;;;;;5095588;28;20055;-73
2021/05/24 02:45:31;;;;;;;3.58;1.80;;;19.00;47.30;;;;;;5094068;28;20032;-72
2021/05/24 02:47:59;;;;;;;4.55;2.05;;;19.00;47.30;;;;;;5095268;28;20368;-73
2021/05/24 02:50:25;;;;;;;4.55;2.10;;;19.00;47.30;;;;;;5095101;28;20029;-73
2021/05/24 02:52:52;;;;;;;4.75;1.92;;;19.00;47.20;;;;;;5095230;28;20383;-74
2021/05/24 02:55:18;;;;;;;4.22;2.08;;;19.00;47.30;;;;;;5095318;28;20052;-73
2021/05/24 02:57:44;;;;;;;4.35;1.80;;;19.00;47.30;;;;;;5095394;28;20372;-73
2021/05/24 03:00:10;;;;;;;4.82;2.00;;;19.00;47.20;;;;;;5095330;28;20031;-73
2021/05/24 03:02:44;;;;;;;3.83;1.88;;;19.00;47.30;;;;;;5093807;28;20023;-73
2021/05/24 03:05:10;;;;;;;;;;;19.00;47.20;;;;;;5095811;28;20032;-72
2021/05/24 03:07:36;;;;;;;4.22;1.92;;;19.00;47.20;;;;;;5095374;28;19904;-73
2021/05/24 03:10:02;;;;;;;4.13;1.77;;;18.90;47.30;;;;;;5095017;28;20522;-73
2021/05/24 03:12:27;;;;;;;4.40;2.08;;;18.90;47.30;;;;;;5095058;28;20020;-73
2021/05/24 03:14:53;;;;;;;4.80;2.38;;;18.90;47.30;;;;;;5093966;28;20099;-73
2021/05/24 03:17:18;;;;;;;3.72;1.80;;;19.00;47.30;;;;;;5095228;28;20020;-73
2021/05/24 03:19:44;;;;;;;4.88;2.10;;;19.00;47.30;;;;;;5094961;28;20028;-73
2021/05/24 03:22:09;;;;;;;4.57;2.00;;;18.90;47.30;;;;;;5094664;28;20438;-73
2021/05/24 03:24:37;;;;;;;3.72;1.75;;;19.00;47.30;;;;;;5094599;28;20073;-73
2021/05/24 03:27:03;;;;;;;4.43;2.20;;;18.90;47.20;;;;;;5094463;28;20025;-73
2021/05/24 03:29:29;;;;;;;4.70;2.40;;;18.90;47.30;;;;;;5094850;28;20030;-73
2021/05/24 03:31:54;;;;;;;4.07;2.05;;;19.00;47.20;;;;;;5094863;28;20471;-73
2021/05/24 03:34:20;;;;;;;3.95;1.80;;;19.00;47.20;;;;;;5094905;28;20064;-73
2021/05/24 03:36:45;;;;;;;4.10;1.90;;;19.00;47.20;;;;;;5094434;28;20031;-73
2021/05/24 03:39:11;;;;;;;5.30;2.28;;;19.00;47.20;;;;;;5094621;28;20047;-73
2021/05/24 03:41:36;;;;;;;4.50;2.00;;;19.00;47.20;;;;;;5094698;28;20495;-73
2021/05/24 03:44:03;;;;;;;5.55;2.38;;;19.00;47.20;;;;;;5095153;28;20020;-73
2021/05/24 03:46:28;;;;;;;4.85;2.00;;;19.00;47.20;;;;;;5094539;28;20027;-73
2021/05/24 03:48:54;;;;;;;4.50;2.30;;;19.00;47.20;;;;;;5095184;28;20017;-73
2021/05/24 03:51:19;;;;;;;7.78;2.47;;;19.00;47.20;;;;;;5096603;28;20024;-73
2021/05/24 03:53:45;;;;;;;6.88;2.63;;;18.90;47.20;;;;;;5103272;28;20035;-73
2021/05/24 03:56:12;;;;;;;4.60;2.35;;;19.00;47.20;;;;;;5094977;28;20028;-73
2021/05/24 03:58:38;;;;;;;4.22;2.08;;;18.90;47.20;;;;;;5094212;28;20608;-73
2021/05/24 04:01:04;;;;;;;5.32;2.53;;;19.00;47.20;;;;;;5094178;28;20037;-73
2021/05/24 04:03:29;;;;;;;4.95;2.30;;;18.90;47.20;;;;;;5093784;28;20055;-73
2021/05/24 04:06:00;;;;;;;4.50;1.80;;;19.00;47.20;;;;;;5093646;28;20498;-73
2021/05/24 04:08:32;;;;;;;4.78;2.22;;;19.00;47.20;;;;;;5093812;28;20048;-73
2021/05/24 04:10:58;;;;;;;4.70;2.35;;;19.00;47.20;;;;;;5093954;28;20040;-74
2021/05/24 04:13:24;;;;;;;4.95;2.42;;;19.00;47.20;;;;;;5094070;28;20510;-74
2021/05/24 04:15:52;;;;;;;4.70;2.17;;;19.00;47.20;;;;;;5094050;28;20032;-73
2021/05/24 04:18:20;;;;;;;5.82;2.25;;;19.00;47.20;;;;;;5094008;28;20016;-74
2021/05/24 04:20:47;;;;;;;3.72;2.10;;;19.00;47.20;;;;;;5093979;28;20543;-73
2021/05/24 04:23:16;;;;;;;3.80;1.73;;;19.00;47.20;;;;;;5094010;28;20071;-74
2021/05/24 04:25:42;;;;;;;4.05;2.10;;;19.00;47.20;;;;;;5093956;28;20070;-73
2021/05/24 04:28:08;;;;;;;6.20;2.60;;;19.00;47.20;;;;;;5093860;28;20062;-73
2021/05/24 04:30:34;;;;;;;5.72;2.47;;;19.00;47.20;;;;;;5093632;28;20490;-73
2021/05/24 04:32:59;;;;;;;4.18;2.00;;;19.00;47.20;;;;;;5093539;28;20035;-73
2021/05/24 04:35:25;;;;;;;4.43;2.13;;;19.00;47.10;;;;;;5094003;28;20052;-73
2021/05/24 04:37:51;;;;;;;5.57;2.25;;;19.00;47.10;;;;;;5093644;28;20027;-73
2021/05/24 04:40:16;;;;;;;6.00;2.13;;;19.00;47.10;;;;;;5093608;28;20027;-73
2021/05/24 04:42:42;;;;;;;4.05;1.98;;;19.00;47.10;;;;;;5093671;28;20020;-73
2021/05/24 04:45:08;;;;;;;5.18;2.30;;;19.00;47.10;;;;;;5093402;28;20042;-74
2021/05/24 04:47:33;;;;;;;3.85;1.90;;;19.00;47.10;;;;;;5093212;28;20024;-74
2021/05/24 04:49:59;;;;;;;3.97;2.15;;;19.00;47.10;;;;;;5093214;28;20472;-73
2021/05/24 04:52:24;;;;;;;4.45;2.00;;;19.00;47.10;;;;;;5093707;28;20422;-73
2021/05/24 04:54:50;;;;;;;5.35;2.45;;;19.00;47.10;;;;;;5093594;28;20157;-73
2021/05/24 04:57:16;;;;;;;4.32;2.03;;;19.00;47.00;;;;;;5093518;28;20025;-73
2021/05/24 04:59:41;;;;;;;3.97;2.00;;;19.00;47.10;;;;;;5093610;28;20028;-73
2021/05/24 05:02:07;;;;;;;4.35;2.00;;;19.00;47.00;;;;;;5093561;28;20046;-73
2021/05/24 05:04:33;;;;;;;4.35;1.83;;;19.00;47.10;;;;;;5093234;28;20039;-73
2021/05/24 05:06:58;;;;;;;4.70;2.10;;;19.00;47.10;;;;;;5093382;28;20036;-73
2021/05/24 05:09:25;;;;;;;5.35;2.00;;;19.00;47.00;;;;;;5093524;28;20051;-74
2021/05/24 05:11:53;;;;;;;4.40;2.10;;;19.00;47.00;;;;;;5093466;28;20032;-73
2021/05/24 05:14:19;;;;;;;4.05;1.95;;;19.00;47.00;;;;;;5093345;28;20533;-73
2021/05/24 05:16:45;;;;;;;3.85;1.90;;;19.00;47.00;;;;;;5093416;28;20032;-73
2021/05/24 05:19:10;;;;;;;5.25;2.50;;;19.00;47.00;;;;;;5093168;28;20024;-73
2021/05/24 05:21:36;;;;;;;4.38;2.15;;;19.10;47.00;;;;;;5093518;28;20046;-73
2021/05/24 05:24:02;;;;;;;5.20;2.05;;;19.10;46.90;;;;;;5093459;28;20160;-74
2021/05/24 05:26:27;;;;;;;3.88;1.75;;;19.10;46.90;;;;;;5092928;28;20024;-73
2021/05/24 05:28:53;;;;;;;4.47;2.10;;;19.10;46.90;;;;;;5093418;28;20035;-74
2021/05/24 05:31:18;;;;;;;4.97;2.25;;;19.10;46.90;;;;;;5093142;28;20051;-73
2021/05/24 05:33:44;;;;;;;4.60;2.20;;;19.10;46.90;;;;;;5091777;28;20384;-73
2021/05/24 05:36:09;;;;;;;3.75;1.98;;;19.10;46.90;;;;;;5093008;28;20028;-73
2021/05/24 05:38:35;;;;;;;4.90;2.28;;;19.00;47.00;;;;;;5092943;28;20035;-73
2021/05/24 05:41:01;;;;;;;5.30;2.33;;;19.10;47.00;;;;;;5092854;28;20039;-73
2021/05/24 05:43:27;;;;;;;4.78;2.03;;;19.10;46.90;;;;;;5092908;28;20023;-73
2021/05/24 05:45:52;;;;;;;4.80;2.20;;;19.10;46.90;;;;;;5092582;28;20040;-74
2021/05/24 05:48:18;;;;;;;4.32;1.83;;;19.10;46.80;;;;;;5092980;28;20019;-73
2021/05/24 05:50:45;;;;;;;5.53;2.22;;;19.10;46.80;;;;;;5092969;28;20460;-74
2021/05/24 05:53:10;;;;;;;5.32;1.98;;;19.10;46.80;;;;;;5093119;28;20028;-74
2021/05/24 05:55:36;;;;;;;5.53;2.00;;;19.10;46.80;;;;;;5092800;28;20035;-73
2021/05/24 05:58:02;;;;;;;4.38;1.95;;;19.20;46.80;;;;;;5093019;28;20093;-74
2021/05/24 06:00:28;;;;;;;4.70;2.03;;;19.10;46.80;;;;;;5094799;28;20402;-74
2021/05/24 06:02:53;;;;;;;4.82;2.30;;;19.10;46.80;;;;;;5095147;28;20028;-73
2021/05/24 06:05:20;;;;;;;4.00;1.75;;;19.10;46.80;;;;;;5095962;28;20032;-74
2021/05/24 06:07:46;;;;;;;3.90;1.90;;;19.10;46.70;;;;;;5096288;28;20095;-73
2021/05/24 06:10:13;;;;;;;4.13;1.90;;;19.20;46.70;;;;;;5096135;28;20059;-74
2021/05/24 06:12:38;;;;;;;4.93;1.95;;;19.20;46.70;;;;;;5096283;28;20020;-74
2021/05/24 06:15:06;;;;;;;4.20;1.90;;;19.30;46.50;;;;;;5095936;28;20036;-73
2021/05/24 06:17:32;;;;;;;5.07;2.05;;;19.40;46.20;;;;;;5095629;28;20485;-73
2021/05/24 06:19:57;;;;;;;4.45;2.20;;;19.40;46.20;;;;;;5096026;28;20103;-73
2021/05/24 06:22:23;;;;;;;3.80;1.90;;;19.30;46.30;;;;;;5096094;28;20048;-73
2021/05/24 06:24:48;;;;;;;4.40;2.20;;;19.30;46.50;;;;;;5095661;28;20016;-73
2021/05/24 06:27:14;;;;;;;3.90;1.63;;;19.30;46.50;;;;;;5096236;28;20028;-73
2021/05/24 06:29:40;;;;;;;2.95;1.60;;;19.30;46.50;;;;;;5095930;28;20057;-73
2021/05/24 06:32:06;;;;;;;4.18;1.75;;;19.30;46.50;;;;;;5095803;28;20024;-73
2021/05/24 06:34:31;;;;;;;3.45;1.80;;;19.30;46.40;;;;;;5096185;28;20099;-73
2021/05/24 06:36:57;;;;;;;4.80;2.00;;;19.30;46.40;;;;;;5095655;28;20042;-73
2021/05/24 06:39:23;;;;;;;3.75;1.73;;;19.40;46.40;;;;;;5095929;28;20050;-73
2021/05/24 06:41:49;;;;;;;4.03;1.95;;;19.30;46.40;;;;;;5096772;28;20069;-73
2021/05/24 06:44:15;;;;;;;4.65;2.03;;;19.40;46.40;;;;;;5095940;28;20112;-73
2021/05/24 06:46:41;;;;;;;3.90;1.92;;;19.40;46.40;;;;;;5095539;28;20032;-73
2021/05/24 06:49:07;;;;;;;3.38;1.70;;;19.40;46.40;;;;;;5095611;28;20016;-73
2021/05/24 06:51:33;;;;;;;4.45;2.22;;;19.40;46.40;;;;;;5095530;28;20073;-73
2021/05/24 06:53:59;;;;;;;4.03;1.83;;;19.40;46.30;;;;;;5095490;28;20055;-73
2021/05/24 06:56:25;;;;;;;5.32;2.33;;;19.40;46.30;;;;;;5095802;28;20062;-73
2021/05/24 06:58:50;;;;;;;4.43;1.98;;;19.40;46.30;;;;;;5095717;28;20437;-73
2021/05/24 07:01:16;;;;;;;3.30;1.58;;;19.40;46.20;;;;;;5095029;28;20031;-73
2021/05/24 07:03:42;;;;;;;4.82;1.85;;;19.50;46.20;;;;;;5095644;28;20024;-73
2021/05/24 07:06:07;;;;;;;3.90;1.80;;;19.50;46.20;;;;;;5095357;28;20031;-73
2021/05/24 07:08:33;;;;;;;3.50;1.65;;;19.50;46.20;;;;;;5095350;28;20016;-73
2021/05/24 07:10:59;;;;;;;4.60;1.75;;;19.50;46.20;;;;;;5094646;28;20055;-73
2021/05/24 07:13:25;;;;;;;4.75;1.77;;;19.50;46.10;;;;;;5095219;28;20092;-73
2021/05/24 07:15:50;;;;;;;4.25;1.83;;;19.50;46.10;;;;;;5095274;28;20491;-72
2021/05/24 07:18:16;;;;;;;3.88;1.80;;;19.50;46.10;;;;;;5096437;28;20597;-72
2021/05/24 07:20:41;;;;;;;4.38;1.80;;;19.50;46.10;;;;;;5096754;28;20069;-73
2021/05/24 07:23:07;;;;;;;2.53;1.40;;;19.50;46.00;;;;;;5093347;28;20506;-73
2021/05/24 07:25:33;;;;;;;4.82;1.90;;;19.50;46.00;;;;;;5094761;28;20368;-73
2021/05/24 07:27:59;;;;;;;4.05;1.70;;;19.50;46.10;;;;;;5094790;28;20016;-74
2021/05/24 07:30:24;;;;;;;3.60;1.80;;;19.50;46.00;;;;;;5094564;28;20104;-74
2021/05/24 07:32:50;;;;;;;4.50;1.90;;;19.50;46.00;;;;;;5094513;28;20051;-74
2021/05/24 07:35:15;;;;;;;3.53;1.73;;;19.50;46.00;;;;;;5094671;28;20074;-73
2021/05/24 07:37:41;;;;;;;5.15;1.98;;;19.50;46.00;;;;;;5094535;28;20027;-73
2021/05/24 07:40:09;;;;;;;3.53;1.65;;;19.60;46.00;;;;;;5094542;28;20103;-72
2021/05/24 07:42:34;;;;;;;4.80;1.90;;;19.60;46.00;;;;;;5093263;28;20035;-74
2021/05/24 07:45:00;;;;;;;3.35;1.70;;;19.60;46.00;;;;;;5094404;28;20032;-73
2021/05/24 07:47:26;;;;;;;3.35;1.63;;;19.60;45.90;;;;;;5094242;28;20032;-73
2021/05/24 07:49:52;;;;;;;3.00;1.40;;;19.60;45.90;;;;;;5094336;28;20028;-73
2021/05/24 07:52:17;;;;;;;3.72;1.67;;;19.60;45.90;;;;;;5094296;28;20032;-73
2021/05/24 07:54:43;;;;;;;3.53;1.48;;;19.60;45.90;;;;;;5094355;28;20024;-73
2021/05/24 07:57:08;;;;;;;3.40;1.65;;;19.60;45.90;;;;;;5093926;28;20050;-73
2021/05/24 07:59:34;;;;;;;4.28;1.33;;;19.60;45.90;;;;;;5094066;28;20044;-73
2021/05/24 08:02:02;;;;;;;4.30;1.90;;;19.70;45.90;;;;;;5094016;28;20429;-73
2021/05/24 08:04:28;;;;;;;3.88;1.70;;;19.70;45.90;;;;;;5093893;28;20333;-73
2021/05/24 08:06:54;;;;;;;3.15;1.60;;;19.70;45.90;;;;;;5093838;28;20024;-73
2021/05/24 08:09:20;;;;;;;3.70;1.40;;;19.70;45.90;;;;;;5093786;28;20024;-72
2021/05/24 08:11:45;;;;;;;3.40;1.70;;;19.70;45.90;;;;;;5093655;28;20084;-73
2021/05/24 08:14:14;;;;;;;3.15;1.52;;;19.70;45.90;;;;;;5094173;28;20020;-72
2021/05/24 08:16:42;;;;;;;3.25;1.48;;;19.70;45.90;;;;;;5093627;28;20028;-73
2021/05/24 08:19:07;;;;;;;4.55;1.52;;;19.70;45.90;;;;;;5093551;28;20028;-73
2021/05/24 08:21:33;;;;;;;3.67;1.42;;;19.70;45.80;;;;;;5093266;28;20031;-73
2021/05/24 08:23:59;;;;;;;4.70;1.80;;;19.80;45.80;;;;;;5092951;28;20384;-73
2021/05/24 08:26:24;;;;;;;4.53;1.52;;;19.80;45.80;;;;;;5093624;28;20034;-73
2021/05/24 08:28:50;;;;;;;4.50;1.80;;;19.80;45.80;;;;;;5093604;28;20488;-73
2021/05/24 08:31:15;;;;;;;3.53;1.38;;;19.80;45.80;;;;;;5093680;28;20078;-73
2021/05/24 08:33:41;;;;;;;3.05;1.45;;;19.80;45.80;;;;;;5093715;28;20020;-74
2021/05/24 08:36:06;;;;;;;2.85;1.40;;;19.70;45.90;;;;;;5093399;28;20032;-73
2021/05/24 08:38:32;;;;;;;3.97;1.70;;;19.70;45.90;;;;;;5094031;28;20028;-73
2021/05/24 08:41:05;;;;;;;3.33;1.77;;;19.70;45.90;;;;;;5093597;28;20463;-73
2021/05/24 08:43:31;;;;;;;3.65;1.70;;;19.60;46.00;;;;;;5093809;28;20100;-73
2021/05/24 08:46:00;;;;;;;2.55;1.35;;;19.70;46.10;;;;;;5093483;28;20115;-72
2021/05/24 08:48:26;;;;;;;3.28;1.70;;;19.70;46.10;;;;;;5093842;28;20110;-74
2021/05/24 08:50:52;;;;;;;4.30;1.45;;;19.70;46.10;;;;;;5093874;28;20028;-74
2021/05/24 08:53:17;;;;;;;2.92;1.30;;;19.60;46.10;;;;;;5093695;28;20069;-73
2021/05/24 08:55:43;;;;;;;3.47;1.60;;;19.70;46.10;;;;;;5093985;28;20028;-73
2021/05/24 08:58:09;;;;;;;3.08;1.40;;;19.60;46.20;;;;;;5093980;28;20036;-73
2021/05/24 09:00:35;;;;;;;3.28;1.52;;;19.60;46.20;;;;;;5103242;28;20031;-74
2021/05/24 09:03:00;;;;;;;3.17;1.35;;;19.60;46.20;;;;;;5104706;28;20032;-74
2021/05/24 09:05:33;;;;;;;3.58;1.50;;;19.60;46.20;;;;;;5103226;28;20036;-74
2021/05/24 09:08:04;;;;;;;2.08;1.02;;;19.60;46.30;;;;;;5103216;28;20035;-74
2021/05/24 09:10:31;;;;;;;3.95;1.50;;;19.60;46.30;;;;;;5104980;28;20372;-74
2021/05/24 09:12:57;;;;;;;4.18;1.40;;;19.60;46.30;;;;;;5102211;28;20016;-72
2021/05/24 09:15:25;;;;;;;5.15;1.65;;;19.50;46.30;;;;;;5102294;28;20039;-73
2021/05/24 09:17:54;;;;;;;3.20;1.30;;;19.50;46.30;;;;;;5096985;28;20489;-73
2021/05/24 09:20:19;;;;;;;3.50;1.60;;;19.50;46.40;;;;;;5093339;28;20033;-73
2021/05/24 09:23:03;;;;;;;3.92;1.63;;;19.50;46.40;;;;;;5093056;28;20048;-73
2021/05/24 09:26:09;;;;;;;2.85;1.48;;;19.60;46.40;;;;;;5093043;28;20120;-73
2021/05/24 09:28:36;;;;;;;;;;;19.50;46.40;;;;;;5031378;28;20056;-73
2021/05/24 09:31:31;;;;;;;4.15;1.55;;;19.50;46.40;;;;;;5031066;28;19909;-73
2021/05/24 09:34:01;;;;;;;3.97;1.65;;;19.50;46.40;;;;;;5075094;28;20119;-73
2021/05/24 09:36:32;;;;;;;5.65;1.75;;;19.50;46.40;;;;;;5096611;28;20537;-73
2021/05/24 09:39:07;;;;;;;3.92;1.30;;;19.60;46.40;;;;;;5096222;28;20021;-73
2021/05/24 09:41:41;;;;;;;3.28;1.42;;;19.60;46.40;;;;;;5094869;28;20361;-73
2021/05/24 09:44:07;;;;;;;;;;;19.50;46.40;;;;;;5096844;28;20052;-72
2021/05/24 09:46:33;;;;;;;3.33;1.58;;;19.60;46.40;;;;;;5096313;28;19981;-74
2021/05/24 09:49:03;;;;;;;3.50;1.35;;;19.50;46.40;;;;;;5094814;28;20054;-73
2021/05/24 09:51:32;;;;;;;3.20;1.42;;;19.50;46.40;;;;;;5094761;28;20063;-73
2021/05/24 09:54:13;;;;;;;3.53;1.58;;;19.60;46.40;;;;;;5096327;28;20051;-73
2021/05/24 09:56:46;;;;;;;3.13;1.60;;;19.60;46.40;;;;;;5094669;28;20031;-74
2021/05/24 09:59:14;;;;;;;4.13;1.50;;;19.60;46.30;;;;;;5094523;28;20027;-73
2021/05/24 10:01:47;;;;;;;3.08;1.50;;;19.60;46.30;;;;;;5094566;28;20278;-73
2021/05/24 10:04:15;;;;;;;2.22;1.10;;;19.60;46.20;;;;;;5095732;28;20111;-74
2021/05/24 10:06:41;;;;;;;3.10;1.40;;;19.70;46.20;;;;;;5095710;28;20107;-73
2021/05/24 10:09:09;;;;;;;3.25;1.65;;;19.70;46.10;;;;;;5095683;28;20027;-72
2021/05/24 10:11:36;;;;;;;2.88;1.25;;;19.70;46.10;;;;;;5096544;28;20028;-73
2021/05/24 10:14:02;;;;;;;3.53;1.45;;;19.70;46.10;;;;;;5096188;28;20032;-74
2021/05/24 10:16:34;;;;;;;2.97;1.50;;;19.70;46.00;;;;;;5096172;28;20024;-74
2021/05/24 10:19:01;;;;;;;2.67;1.27;;;19.80;46.00;;;;;;5096268;28;20055;-73
2021/05/24 10:21:27;;;;;;;3.30;1.20;;;19.80;46.00;;;;;;5096004;28;20133;-73
2021/05/24 10:23:54;;;;;;;3.03;1.38;;;19.80;46.00;;;;;;5095653;28;20052;-74
2021/05/24 10:26:21;;;;;;;2.53;1.30;;;19.70;46.10;;;;;;5095956;28;20503;-72
2021/05/24 10:28:48;;;;;;;3.70;1.33;;;19.70;46.10;;;;;;5096082;28;20410;-72
2021/05/24 10:31:22;;;;;;;2.88;1.33;;;19.70;46.10;;;;;;5095830;28;20016;-73
2021/05/24 10:33:49;;;;;;;3.08;1.23;;;19.70;46.20;;;;;;5095641;28;20056;-72
2021/05/24 10:36:31;;;;;;;3.45;1.30;;;19.70;46.30;;;;;;5095916;28;20062;-72
2021/05/24 10:39:04;;;;;;;3.08;1.40;;;19.60;46.30;;;;;;5095689;28;20020;-72
2021/05/24 10:41:51;;;;;;;2.92;1.20;;;19.70;46.30;;;;;;5095837;28;20024;-72
2021/05/24 10:44:45;;;;;;;2.78;1.40;;;19.60;46.30;;;;;;5095134;28;20048;-72
2021/05/24 10:47:17;;;;;;;3.10;1.33;;;19.60;46.40;;;;;;5094554;28;20395;-72
2021/05/24 10:50:05;;;;;;;2.72;1.08;;;19.60;46.30;;;;;;5095778;28;20495;-72
2021/05/24 10:52:48;;;;;;;4.60;1.60;;;19.70;46.30;;;;;;5096069;28;20460;-72
2021/05/24 10:55:26;;;;;;;2.55;1.13;;;19.70;46.30;;;;;;5095394;28;20529;-72
2021/05/24 10:57:56;;;;;;;2.60;1.15;;;19.70;46.40;;;;;;5095195;28;20117;-72
2021/05/24 11:00:23;;;;;;;2.85;1.20;;;19.60;46.30;;;;;;5094983;28;20024;-72
2021/05/24 11:02:53;;;;;;;3.33;1.67;;;19.70;46.40;;;;;;5095024;28;20020;-72
2021/05/24 11:05:30;;;;;;;2.47;1.13;;;19.60;46.40;;;;;;5095112;28;20090;-72
2021/05/24 11:07:58;;;;;;;2.67;1.30;;;19.60;46.40;;;;;;5095111;28;20038;-72
2021/05/24 11:10:29;;;;;;;4.00;1.38;;;19.70;46.40;;;;;;5095052;28;20023;-72
2021/05/24 11:13:07;;;;;;;3.03;1.42;;;19.60;46.40;;;;;;5095404;28;20022;-72
2021/05/24 11:15:34;;;;;;;3.08;1.40;;;19.60;46.40;;;;;;5095170;28;20107;-72
2021/05/24 11:18:02;;;;;;;3.13;1.30;;;19.60;46.40;;;;;;5095127;28;20100;-72
2021/05/24 11:20:35;;;;;;;2.50;1.30;;;19.60;46.40;;;;;;5094940;28;20097;-71
2021/05/24 11:23:40;;;;;;;3.05;1.45;;;19.60;46.50;;;;;;5093564;28;20052;-72
2021/05/24 11:26:12;;;;;;;2.22;0.90;;;19.70;46.40;;;;;;5094848;28;20508;-72
2021/05/24 11:28:38;;;;;;;4.35;1.23;;;19.60;46.50;;;;;;5095461;28;20383;-72
2021/05/24 11:31:35;;;;;;;2.95;1.40;;;19.70;46.50;;;;;;5094952;28;20073;-73
2021/05/24 11:34:01;;;;;;;3.35;1.27;;;19.70;46.40;;;;;;5094366;28;20024;-72
2021/05/24 11:36:35;;;;;;;3.88;1.38;;;19.60;46.50;;;;;;5096118;28;20356;-72
2021/05/24 11:39:09;;;;;;;2.60;1.25;;;19.70;46.50;;;;;;5096537;28;20471;-73
2021/05/24 11:41:42;;;;;;;2.95;1.17;;;19.60;46.50;;;;;;5100994;28;20016;-73
2021/05/24 11:44:08;;;;;;;2.78;1.30;;;19.70;46.50;;;;;;5094750;28;20027;-73
2021/05/24 11:46:48;;;;;;;3.20;1.40;;;19.60;46.50;;;;;;5094850;28;20051;-72
2021/05/24 11:49:16;;;;;;;3.42;1.33;;;19.60;46.50;;;;;;5094151;28;20020;-73
2021/05/24 11:51:43;;;;;;;3.83;1.48;;;19.70;46.50;;;;;;5094520;28;20483;-73
2021/05/24 11:54:12;;;;;;;2.05;0.90;;;19.60;46.60;;;;;;5094337;28;20024;-74
2021/05/24 11:56:41;;;;;;;2.22;0.95;;;19.60;46.50;;;;;;5094292;28;20136;-73
2021/05/24 11:59:10;;;;;;;2.97;1.33;;;19.60;46.50;;;;;;5094295;28;20039;-73
2021/05/24 12:01:37;;;;;;;2.67;1.20;;;19.60;46.60;;;;;;5093917;28;20480;-73
2021/05/24 12:04:07;;;;;;;2.22;1.10;;;19.70;46.60;;;;;;5093772;28;20031;-74
2021/05/24 12:06:53;;;;;;;2.17;1.08;;;19.70;46.60;;;;;;5093610;28;20036;-73
2021/05/24 12:09:34;;;;;;;2.75;1.20;;;19.60;46.60;;;;;;5094247;28;20501;-73
2021/05/24 12:12:01;;;;;;;3.60;1.10;;;19.60;46.60;;;;;;5094016;28;20020;-73
2021/05/24 12:14:27;;;;;;;3.22;1.48;;;19.60;46.60;;;;;;5094067;28;20020;-73
2021/05/24 12:16:53;;;;;;;2.17;1.02;;;19.70;46.60;;;;;;5093788;28;20028;-72
2021/05/24 12:19:24;;;;;;;3.20;1.40;;;19.60;46.60;;;;;;5093879;28;20077;-73
2021/05/24 12:21:51;;;;;;;4.00;1.70;;;19.60;46.70;;;;;;5093735;28;20024;-73
2021/05/24 12:24:18;;;;;;;3.05;1.55;;;19.60;46.70;;;;;;5093389;28;20024;-73
2021/05/24 12:26:55;;;;;;;2.17;1.00;;;19.60;46.70;;;;;;5093458;28;20487;-72
2021/05/24 12:29:30;;;;;;;2.72;1.13;;;19.60;46.70;;;;;;5093643;28;20058;-73
2021/05/24 12:31:58;;;;;;;3.25;1.30;;;19.60;46.70;;;;;;5093240;28;20024;-73
2021/05/24 12:34:30;;;;;;;2.85;1.30;;;19.60;46.80;;;;;;5093649;28;20024;-73
2021/05/24 12:36:57;;;;;;;2.35;1.00;;;19.50;46.80;;;;;;5093595;28;20048;-73
2021/05/24 12:39:25;;;;;;;2.40;1.17;;;19.60;46.80;;;;;;5093622;28;20479;-73
2021/05/24 12:41:53;;;;;;;2.78;1.23;;;19.60;46.90;;;;;;5093514;28;20472;-73
2021/05/24 12:44:24;;;;;;;2.03;0.82;;;19.50;46.90;;;;;;5091832;28;20024;-73
2021/05/24 12:46:52;;;;;;;2.33;1.00;;;19.50;46.90;;;;;;5093173;28;20043;-73
2021/05/24 12:49:21;;;;;;;2.67;1.10;;;19.50;46.90;;;;;;5093392;28;20099;-72
2021/05/24 12:51:58;;;;;;;2.95;1.30;;;19.50;46.90;;;;;;5093359;28;20178;-71